Pagrindinis puslapis
METAR-TAF:

METAR-TAF

Oro uostai :

Dumaguete, Filipinai

platuma: 09-20-01N, ilguma: 123-18-02E, Aukštis: 5 m

Dabartinis oras

Ataskaita buvo paskelbta 23 minutes, ne 05:00 UTC
Vėjas 2 kt iš Šiaurės/Šiaurės Rytų
Temperatūra 31°C
Drėgmė 71%
Slėgis 1011 hPa
Matomumas 10 km arba daugiau
Mažai debesys ne aukštis 1500 ft

METAR: RPVD 020500Z 02002KT 9999 FEW015 31/25 Q1011 RMK A2985

Laikas: 13:23 (05:23 UTC)

Prognozė

Ataskaita buvo paskelbta 6 valandos ir 23 minutes, ne 23:00 UTC
Prognozė galioja nuo 02 metu 00 UTC su 02 metu 24 UTC
Vėjas 6 kt iš Šiaurės Rytų
Matomumas 10 km arba daugiau
Mažai debesys ne aukštis 1500 ft
Laikinai
nuo 02 metu 00 UTC su 02 metu 06 UTC
Vėjas 10 kt iš Rytų/Šiaurės Rytų
Išsisklaidę debesys ne aukštis 1500 ft
Išsisklaidę debesys ne aukštis 7000 ft

TAF: RPVD 012300Z 0200/0224 04006KT 9999 FEW015 TEMPO 0200/0206 07010KT SCT015 SCT070

Orai ataskaitas ir orų prognozės (METAR, TAF).

turimą stotys yra geltonos ir raudonos taškus žemėlapyje.

Perkelti pele per norėdami pamatyti stoties vardą.

Tada spustelėkite, norėdami matyti oro stebėjimo ir prognozės.

Norėdami pakeisti žemėlapį: spustelėkite ant žalios mygtukų su juodo kryžiaus žemyn,; žalią mygtuką su brūkšneliu, jei norite nutolinti; arba žalių rodyklių gretimoms žemėlapius.


METAR-TAF: